sensor_id;sensor_type;location;lat;lon;timestamp;P1;durP1;ratioP1;P2;durP2;ratioP2
50459;SDS011;36385;51.644;7.098;2022-12-13T00:01:50;66.75;;;32.50;;
50459;SDS011;36385;51.644;7.098;2022-12-13T00:04:17;64.68;;;34.17;;
50459;SDS011;36385;51.644;7.098;2022-12-13T00:06:44;67.38;;;33.33;;
50459;SDS011;36385;51.644;7.098;2022-12-13T00:09:14;66.70;;;33.92;;
50459;SDS011;36385;51.644;7.098;2022-12-13T00:11:40;63.60;;;31.50;;
50459;SDS011;36385;51.644;7.098;2022-12-13T00:14:06;66.70;;;33.40;;
50459;SDS011;36385;51.644;7.098;2022-12-13T00:16:32;67.85;;;31.88;;
50459;SDS011;36385;51.644;7.098;2022-12-13T00:18:58;61.45;;;31.35;;
50459;SDS011;36385;51.644;7.098;2022-12-13T00:21:26;52.20;;;28.40;;
50459;SDS011;36385;51.644;7.098;2022-12-13T00:23:53;59.03;;;30.83;;
50459;SDS011;36385;51.644;7.098;2022-12-13T00:26:20;57.63;;;30.13;;
50459;SDS011;36385;51.644;7.098;2022-12-13T00:28:48;55.92;;;27.90;;
50459;SDS011;36385;51.644;7.098;2022-12-13T00:31:16;55.17;;;27.92;;
50459;SDS011;36385;51.644;7.098;2022-12-13T00:33:42;52.42;;;27.20;;
50459;SDS011;36385;51.644;7.098;2022-12-13T00:36:08;54.55;;;28.48;;
50459;SDS011;36385;51.644;7.098;2022-12-13T00:38:34;52.53;;;27.58;;
50459;SDS011;36385;51.644;7.098;2022-12-13T00:43:37;52.63;;;26.30;;
50459;SDS011;36385;51.644;7.098;2022-12-13T00:46:02;45.05;;;24.92;;
50459;SDS011;36385;51.644;7.098;2022-12-13T00:48:28;50.33;;;25.55;;
50459;SDS011;36385;51.644;7.098;2022-12-13T00:50:54;51.55;;;26.80;;
50459;SDS011;36385;51.644;7.098;2022-12-13T00:53:19;51.15;;;26.17;;
50459;SDS011;36385;51.644;7.098;2022-12-13T00:55:45;51.97;;;25.85;;
50459;SDS011;36385;51.644;7.098;2022-12-13T00:58:10;52.30;;;25.25;;
50459;SDS011;36385;51.644;7.098;2022-12-13T01:00:36;47.50;;;25.13;;
50459;SDS011;36385;51.644;7.098;2022-12-13T01:03:02;51.72;;;25.63;;
50459;SDS011;36385;51.644;7.098;2022-12-13T01:05:44;48.40;;;25.13;;
50459;SDS011;36385;51.644;7.098;2022-12-13T01:08:11;51.90;;;24.80;;
50459;SDS011;36385;51.644;7.098;2022-12-13T01:10:40;44.80;;;23.92;;
50459;SDS011;36385;51.644;7.098;2022-12-13T01:13:10;47.92;;;23.70;;
50459;SDS011;36385;51.644;7.098;2022-12-13T01:15:42;45.30;;;24.80;;
50459;SDS011;36385;51.644;7.098;2022-12-13T01:18:09;46.53;;;24.17;;
50459;SDS011;36385;51.644;7.098;2022-12-13T01:20:35;44.85;;;23.02;;
50459;SDS011;36385;51.644;7.098;2022-12-13T01:23:01;48.40;;;23.92;;
50459;SDS011;36385;51.644;7.098;2022-12-13T01:25:28;48.03;;;24.17;;
50459;SDS011;36385;51.644;7.098;2022-12-13T01:27:54;45.10;;;23.35;;
50459;SDS011;36385;51.644;7.098;2022-12-13T01:30:20;47.17;;;24.15;;
50459;SDS011;36385;51.644;7.098;2022-12-13T01:32:45;46.53;;;23.73;;
50459;SDS011;36385;51.644;7.098;2022-12-13T01:35:11;51.85;;;24.33;;
50459;SDS011;36385;51.644;7.098;2022-12-13T01:37:38;43.03;;;22.70;;
50459;SDS011;36385;51.644;7.098;2022-12-13T01:40:04;48.10;;;22.50;;
50459;SDS011;36385;51.644;7.098;2022-12-13T01:42:30;43.58;;;21.80;;
50459;SDS011;36385;51.644;7.098;2022-12-13T01:45:01;45.53;;;23.60;;
50459;SDS011;36385;51.644;7.098;2022-12-13T01:47:38;43.50;;;21.63;;
50459;SDS011;36385;51.644;7.098;2022-12-13T01:50:12;46.03;;;23.10;;
50459;SDS011;36385;51.644;7.098;2022-12-13T01:52:43;45.22;;;23.02;;
50459;SDS011;36385;51.644;7.098;2022-12-13T01:55:09;49.28;;;23.25;;
50459;SDS011;36385;51.644;7.098;2022-12-13T01:57:37;47.13;;;23.67;;
50459;SDS011;36385;51.644;7.098;2022-12-13T02:00:08;44.20;;;22.30;;
50459;SDS011;36385;51.644;7.098;2022-12-13T02:02:34;41.58;;;22.42;;
50459;SDS011;36385;51.644;7.098;2022-12-13T02:05:08;43.13;;;22.50;;
50459;SDS011;36385;51.644;7.098;2022-12-13T02:07:40;41.00;;;21.17;;
50459;SDS011;36385;51.644;7.098;2022-12-13T02:10:07;43.70;;;21.88;;
50459;SDS011;36385;51.644;7.098;2022-12-13T02:12:34;46.13;;;22.08;;
50459;SDS011;36385;51.644;7.098;2022-12-13T02:15:04;42.53;;;22.00;;
50459;SDS011;36385;51.644;7.098;2022-12-13T02:30:49;41.20;;;21.33;;
50459;SDS011;36385;51.644;7.098;2022-12-13T02:41:30;44.88;;;22.33;;
50459;SDS011;36385;51.644;7.098;2022-12-13T02:44:04;42.97;;;21.48;;
50459;SDS011;36385;51.644;7.098;2022-12-13T02:46:38;41.30;;;20.58;;
50459;SDS011;36385;51.644;7.098;2022-12-13T02:49:13;45.83;;;22.70;;
50459;SDS011;36385;51.644;7.098;2022-12-13T02:51:40;42.63;;;21.63;;
50459;SDS011;36385;51.644;7.098;2022-12-13T02:54:07;43.25;;;22.33;;
50459;SDS011;36385;51.644;7.098;2022-12-13T02:56:33;46.17;;;22.42;;
50459;SDS011;36385;51.644;7.098;2022-12-13T02:59:00;46.78;;;23.63;;
50459;SDS011;36385;51.644;7.098;2022-12-13T03:01:39;46.10;;;22.30;;
50459;SDS011;36385;51.644;7.098;2022-12-13T03:10:28;41.28;;;21.80;;
50459;SDS011;36385;51.644;7.098;2022-12-13T03:13:27;40.92;;;21.40;;
50459;SDS011;36385;51.644;7.098;2022-12-13T03:16:21;40.83;;;21.02;;
50459;SDS011;36385;51.644;7.098;2022-12-13T03:19:07;41.95;;;20.38;;
50459;SDS011;36385;51.644;7.098;2022-12-13T03:21:37;43.60;;;20.67;;
50459;SDS011;36385;51.644;7.098;2022-12-13T03:24:04;39.83;;;20.52;;
50459;SDS011;36385;51.644;7.098;2022-12-13T03:26:29;40.85;;;21.98;;
50459;SDS011;36385;51.644;7.098;2022-12-13T03:28:55;43.95;;;20.85;;
50459;SDS011;36385;51.644;7.098;2022-12-13T03:31:21;39.08;;;20.65;;
50459;SDS011;36385;51.644;7.098;2022-12-13T03:33:47;42.05;;;20.10;;
50459;SDS011;36385;51.644;7.098;2022-12-13T03:36:12;40.45;;;19.88;;
50459;SDS011;36385;51.644;7.098;2022-12-13T03:38:38;38.58;;;19.80;;
50459;SDS011;36385;51.644;7.098;2022-12-13T03:41:08;42.47;;;19.95;;
50459;SDS011;36385;51.644;7.098;2022-12-13T03:43:37;40.92;;;21.23;;
50459;SDS011;36385;51.644;7.098;2022-12-13T03:46:03;41.08;;;19.52;;
50459;SDS011;36385;51.644;7.098;2022-12-13T03:48:29;40.15;;;19.73;;
50459;SDS011;36385;51.644;7.098;2022-12-13T03:50:55;44.45;;;21.35;;
50459;SDS011;36385;51.644;7.098;2022-12-13T03:53:22;41.85;;;21.65;;
50459;SDS011;36385;51.644;7.098;2022-12-13T03:55:48;40.42;;;21.42;;
50459;SDS011;36385;51.644;7.098;2022-12-13T03:58:14;44.38;;;21.00;;
50459;SDS011;36385;51.644;7.098;2022-12-13T04:00:39;42.58;;;21.08;;
50459;SDS011;36385;51.644;7.098;2022-12-13T04:03:05;43.08;;;21.58;;
50459;SDS011;36385;51.644;7.098;2022-12-13T04:05:31;42.88;;;22.52;;
50459;SDS011;36385;51.644;7.098;2022-12-13T04:07:56;48.67;;;22.27;;
50459;SDS011;36385;51.644;7.098;2022-12-13T04:10:22;45.03;;;23.15;;
50459;SDS011;36385;51.644;7.098;2022-12-13T04:12:49;44.17;;;23.27;;
50459;SDS011;36385;51.644;7.098;2022-12-13T04:15:33;46.53;;;22.75;;
50459;SDS011;36385;51.644;7.098;2022-12-13T04:17:59;47.35;;;24.27;;
50459;SDS011;36385;51.644;7.098;2022-12-13T04:20:25;54.08;;;25.13;;
50459;SDS011;36385;51.644;7.098;2022-12-13T04:22:51;45.88;;;23.58;;
50459;SDS011;36385;51.644;7.098;2022-12-13T04:25:17;44.42;;;23.98;;
50459;SDS011;36385;51.644;7.098;2022-12-13T04:27:43;47.53;;;22.75;;
50459;SDS011;36385;51.644;7.098;2022-12-13T04:30:09;45.90;;;24.48;;
50459;SDS011;36385;51.644;7.098;2022-12-13T04:32:35;46.88;;;23.40;;
50459;SDS011;36385;51.644;7.098;2022-12-13T04:35:01;45.35;;;23.45;;
50459;SDS011;36385;51.644;7.098;2022-12-13T04:37:27;44.70;;;23.38;;
50459;SDS011;36385;51.644;7.098;2022-12-13T04:39:53;46.78;;;23.90;;
50459;SDS011;36385;51.644;7.098;2022-12-13T04:42:19;50.15;;;24.27;;
50459;SDS011;36385;51.644;7.098;2022-12-13T04:44:44;47.10;;;23.85;;
50459;SDS011;36385;51.644;7.098;2022-12-13T04:47:10;43.38;;;23.38;;
50459;SDS011;36385;51.644;7.098;2022-12-13T04:49:35;47.67;;;24.52;;
50459;SDS011;36385;51.644;7.098;2022-12-13T04:52:01;46.30;;;23.27;;
50459;SDS011;36385;51.644;7.098;2022-12-13T04:54:28;47.42;;;23.70;;
50459;SDS011;36385;51.644;7.098;2022-12-13T04:56:56;47.10;;;23.55;;
50459;SDS011;36385;51.644;7.098;2022-12-13T04:59:22;50.20;;;24.50;;
50459;SDS011;36385;51.644;7.098;2022-12-13T05:01:47;48.00;;;24.85;;
50459;SDS011;36385;51.644;7.098;2022-12-13T05:04:13;45.58;;;23.85;;
50459;SDS011;36385;51.644;7.098;2022-12-13T05:06:39;46.83;;;23.52;;
50459;SDS011;36385;51.644;7.098;2022-12-13T05:09:04;46.85;;;25.27;;
50459;SDS011;36385;51.644;7.098;2022-12-13T05:11:31;48.33;;;24.55;;
50459;SDS011;36385;51.644;7.098;2022-12-13T05:13:57;45.92;;;23.85;;
50459;SDS011;36385;51.644;7.098;2022-12-13T05:16:23;47.70;;;24.15;;
50459;SDS011;36385;51.644;7.098;2022-12-13T05:18:49;47.30;;;24.23;;
50459;SDS011;36385;51.644;7.098;2022-12-13T05:21:14;47.90;;;24.08;;
50459;SDS011;36385;51.644;7.098;2022-12-13T05:23:40;57.95;;;25.92;;
50459;SDS011;36385;51.644;7.098;2022-12-13T05:26:06;53.28;;;25.67;;
50459;SDS011;36385;51.644;7.098;2022-12-13T05:28:31;46.75;;;25.20;;
50459;SDS011;36385;51.644;7.098;2022-12-13T05:30:58;55.67;;;27.15;;
50459;SDS011;36385;51.644;7.098;2022-12-13T05:33:35;51.60;;;25.52;;
50459;SDS011;36385;51.644;7.098;2022-12-13T05:36:01;48.70;;;24.92;;
50459;SDS011;36385;51.644;7.098;2022-12-13T05:38:27;51.65;;;25.75;;
50459;SDS011;36385;51.644;7.098;2022-12-13T05:40:53;52.78;;;24.58;;
50459;SDS011;36385;51.644;7.098;2022-12-13T05:43:18;50.17;;;25.98;;
50459;SDS011;36385;51.644;7.098;2022-12-13T05:45:44;52.88;;;26.08;;
50459;SDS011;36385;51.644;7.098;2022-12-13T05:48:10;51.78;;;24.10;;
50459;SDS011;36385;51.644;7.098;2022-12-13T05:50:36;54.20;;;26.08;;
50459;SDS011;36385;51.644;7.098;2022-12-13T05:53:05;48.75;;;25.23;;
50459;SDS011;36385;51.644;7.098;2022-12-13T05:55:31;49.00;;;24.55;;
50459;SDS011;36385;51.644;7.098;2022-12-13T05:57:57;49.03;;;25.25;;
50459;SDS011;36385;51.644;7.098;2022-12-13T06:00:23;50.88;;;26.05;;
50459;SDS011;36385;51.644;7.098;2022-12-13T06:02:50;51.38;;;26.13;;
50459;SDS011;36385;51.644;7.098;2022-12-13T06:05:15;49.20;;;25.30;;
50459;SDS011;36385;51.644;7.098;2022-12-13T06:07:41;49.47;;;25.88;;
50459;SDS011;36385;51.644;7.098;2022-12-13T06:10:07;48.70;;;24.60;;
50459;SDS011;36385;51.644;7.098;2022-12-13T06:12:33;56.35;;;26.02;;
50459;SDS011;36385;51.644;7.098;2022-12-13T06:15:00;50.85;;;25.52;;
50459;SDS011;36385;51.644;7.098;2022-12-13T06:17:29;51.00;;;26.33;;
50459;SDS011;36385;51.644;7.098;2022-12-13T06:19:58;51.08;;;26.45;;
50459;SDS011;36385;51.644;7.098;2022-12-13T06:22:24;51.00;;;25.08;;
50459;SDS011;36385;51.644;7.098;2022-12-13T06:24:51;53.25;;;24.55;;
50459;SDS011;36385;51.644;7.098;2022-12-13T06:27:17;47.72;;;24.65;;
50459;SDS011;36385;51.644;7.098;2022-12-13T06:29:43;50.20;;;25.02;;
50459;SDS011;36385;51.644;7.098;2022-12-13T06:32:09;56.03;;;26.88;;
50459;SDS011;36385;51.644;7.098;2022-12-13T06:34:35;50.85;;;24.33;;
50459;SDS011;36385;51.644;7.098;2022-12-13T06:37:01;52.25;;;24.90;;
50459;SDS011;36385;51.644;7.098;2022-12-13T06:39:28;54.20;;;25.92;;
50459;SDS011;36385;51.644;7.098;2022-12-13T06:41:54;49.80;;;26.25;;
50459;SDS011;36385;51.644;7.098;2022-12-13T06:44:20;53.92;;;26.98;;
50459;SDS011;36385;51.644;7.098;2022-12-13T06:46:46;53.50;;;26.80;;
50459;SDS011;36385;51.644;7.098;2022-12-13T06:49:11;50.20;;;25.30;;
50459;SDS011;36385;51.644;7.098;2022-12-13T06:51:37;52.80;;;25.52;;
50459;SDS011;36385;51.644;7.098;2022-12-13T06:54:03;50.70;;;26.38;;
50459;SDS011;36385;51.644;7.098;2022-12-13T06:56:29;52.45;;;26.20;;
50459;SDS011;36385;51.644;7.098;2022-12-13T06:58:55;53.92;;;26.70;;
50459;SDS011;36385;51.644;7.098;2022-12-13T07:01:20;51.40;;;27.08;;
50459;SDS011;36385;51.644;7.098;2022-12-13T07:03:46;50.10;;;26.30;;
50459;SDS011;36385;51.644;7.098;2022-12-13T07:06:13;50.92;;;25.88;;
50459;SDS011;36385;51.644;7.098;2022-12-13T07:08:40;52.50;;;26.83;;
50459;SDS011;36385;51.644;7.098;2022-12-13T07:11:12;54.63;;;27.42;;
50459;SDS011;36385;51.644;7.098;2022-12-13T07:13:39;59.63;;;26.90;;
50459;SDS011;36385;51.644;7.098;2022-12-13T07:16:05;52.65;;;26.55;;
50459;SDS011;36385;51.644;7.098;2022-12-13T07:18:31;54.47;;;27.52;;
50459;SDS011;36385;51.644;7.098;2022-12-13T07:20:57;50.35;;;26.30;;
50459;SDS011;36385;51.644;7.098;2022-12-13T07:23:23;50.38;;;25.80;;
50459;SDS011;36385;51.644;7.098;2022-12-13T07:25:52;49.13;;;26.70;;
50459;SDS011;36385;51.644;7.098;2022-12-13T07:28:18;56.00;;;27.27;;
50459;SDS011;36385;51.644;7.098;2022-12-13T07:30:44;57.92;;;29.17;;
50459;SDS011;36385;51.644;7.098;2022-12-13T07:33:11;58.28;;;28.13;;
50459;SDS011;36385;51.644;7.098;2022-12-13T07:35:37;50.97;;;25.80;;
50459;SDS011;36385;51.644;7.098;2022-12-13T07:38:03;54.03;;;26.08;;
50459;SDS011;36385;51.644;7.098;2022-12-13T07:40:32;57.35;;;26.17;;
50459;SDS011;36385;51.644;7.098;2022-12-13T07:42:58;54.83;;;26.65;;
50459;SDS011;36385;51.644;7.098;2022-12-13T07:45:24;55.22;;;26.95;;
50459;SDS011;36385;51.644;7.098;2022-12-13T07:47:50;52.78;;;26.23;;
50459;SDS011;36385;51.644;7.098;2022-12-13T07:50:16;50.42;;;25.45;;
50459;SDS011;36385;51.644;7.098;2022-12-13T07:52:44;49.00;;;25.25;;
50459;SDS011;36385;51.644;7.098;2022-12-13T07:55:13;51.03;;;25.15;;
50459;SDS011;36385;51.644;7.098;2022-12-13T07:57:40;56.20;;;26.77;;
50459;SDS011;36385;51.644;7.098;2022-12-13T08:00:06;50.85;;;25.60;;
50459;SDS011;36385;51.644;7.098;2022-12-13T08:02:32;54.03;;;25.00;;
50459;SDS011;36385;51.644;7.098;2022-12-13T08:04:58;51.17;;;26.27;;
50459;SDS011;36385;51.644;7.098;2022-12-13T08:07:23;50.15;;;25.85;;
50459;SDS011;36385;51.644;7.098;2022-12-13T08:09:49;56.88;;;28.63;;
50459;SDS011;36385;51.644;7.098;2022-12-13T08:12:15;60.58;;;30.35;;
50459;SDS011;36385;51.644;7.098;2022-12-13T08:14:40;59.28;;;30.80;;
50459;SDS011;36385;51.644;7.098;2022-12-13T08:17:06;56.70;;;29.65;;
50459;SDS011;36385;51.644;7.098;2022-12-13T08:19:32;50.90;;;27.88;;
50459;SDS011;36385;51.644;7.098;2022-12-13T08:21:57;56.10;;;29.48;;
50459;SDS011;36385;51.644;7.098;2022-12-13T08:24:24;55.53;;;29.35;;
50459;SDS011;36385;51.644;7.098;2022-12-13T08:26:51;63.95;;;29.17;;
50459;SDS011;36385;51.644;7.098;2022-12-13T08:29:16;56.92;;;29.95;;
50459;SDS011;36385;51.644;7.098;2022-12-13T08:31:42;49.97;;;27.35;;
50459;SDS011;36385;51.644;7.098;2022-12-13T08:34:08;56.70;;;27.15;;
50459;SDS011;36385;51.644;7.098;2022-12-13T08:36:34;51.58;;;25.40;;
50459;SDS011;36385;51.644;7.098;2022-12-13T08:38:59;50.40;;;26.05;;
50459;SDS011;36385;51.644;7.098;2022-12-13T08:41:27;51.08;;;27.30;;
50459;SDS011;36385;51.644;7.098;2022-12-13T08:43:53;51.13;;;26.38;;
50459;SDS011;36385;51.644;7.098;2022-12-13T08:46:19;54.15;;;26.77;;
50459;SDS011;36385;51.644;7.098;2022-12-13T08:48:44;52.40;;;26.48;;
50459;SDS011;36385;51.644;7.098;2022-12-13T08:51:12;51.08;;;26.40;;
50459;SDS011;36385;51.644;7.098;2022-12-13T08:53:41;48.20;;;26.77;;
50459;SDS011;36385;51.644;7.098;2022-12-13T08:56:09;53.17;;;26.88;;
50459;SDS011;36385;51.644;7.098;2022-12-13T08:58:36;53.40;;;26.02;;
50459;SDS011;36385;51.644;7.098;2022-12-13T09:01:05;47.55;;;26.42;;
50459;SDS011;36385;51.644;7.098;2022-12-13T09:03:32;47.65;;;26.27;;
50459;SDS011;36385;51.644;7.098;2022-12-13T09:06:07;53.80;;;27.15;;
50459;SDS011;36385;51.644;7.098;2022-12-13T09:08:35;63.03;;;30.25;;
50459;SDS011;36385;51.644;7.098;2022-12-13T09:11:03;56.72;;;30.80;;
50459;SDS011;36385;51.644;7.098;2022-12-13T09:13:30;58.30;;;32.08;;
50459;SDS011;36385;51.644;7.098;2022-12-13T09:15:57;58.30;;;30.20;;
50459;SDS011;36385;51.644;7.098;2022-12-13T09:18:24;52.83;;;29.13;;
50459;SDS011;36385;51.644;7.098;2022-12-13T09:20:50;54.63;;;28.20;;
50459;SDS011;36385;51.644;7.098;2022-12-13T09:23:15;49.58;;;27.83;;
50459;SDS011;36385;51.644;7.098;2022-12-13T09:25:41;50.88;;;28.10;;
50459;SDS011;36385;51.644;7.098;2022-12-13T09:28:07;52.65;;;27.50;;
50459;SDS011;36385;51.644;7.098;2022-12-13T09:30:34;52.80;;;26.73;;
50459;SDS011;36385;51.644;7.098;2022-12-13T09:33:01;52.38;;;27.52;;
50459;SDS011;36385;51.644;7.098;2022-12-13T09:35:27;54.15;;;27.48;;
50459;SDS011;36385;51.644;7.098;2022-12-13T09:37:54;50.22;;;26.55;;
50459;SDS011;36385;51.644;7.098;2022-12-13T09:40:23;52.80;;;27.20;;
50459;SDS011;36385;51.644;7.098;2022-12-13T09:42:52;52.70;;;28.80;;
50459;SDS011;36385;51.644;7.098;2022-12-13T09:45:21;48.35;;;27.73;;
50459;SDS011;36385;51.644;7.098;2022-12-13T09:47:48;54.70;;;27.25;;
50459;SDS011;36385;51.644;7.098;2022-12-13T09:50:23;53.15;;;26.45;;
50459;SDS011;36385;51.644;7.098;2022-12-13T09:52:50;56.85;;;26.98;;
50459;SDS011;36385;51.644;7.098;2022-12-13T09:57:53;45.38;;;25.10;;
50459;SDS011;36385;51.644;7.098;2022-12-13T10:00:20;49.85;;;25.77;;
50459;SDS011;36385;51.644;7.098;2022-12-13T10:02:51;46.95;;;24.65;;
50459;SDS011;36385;51.644;7.098;2022-12-13T10:05:32;45.97;;;24.52;;
50459;SDS011;36385;51.644;7.098;2022-12-13T10:08:07;47.25;;;23.98;;
50459;SDS011;36385;51.644;7.098;2022-12-13T10:10:56;44.72;;;23.88;;
50459;SDS011;36385;51.644;7.098;2022-12-13T10:13:35;47.70;;;24.83;;
50459;SDS011;36385;51.644;7.098;2022-12-13T10:18:59;46.85;;;23.38;;
50459;SDS011;36385;51.644;7.098;2022-12-13T10:21:38;42.72;;;21.65;;
50459;SDS011;36385;51.644;7.098;2022-12-13T10:24:15;43.38;;;21.05;;
50459;SDS011;36385;51.644;7.098;2022-12-13T10:26:44;42.97;;;21.55;;
50459;SDS011;36385;51.644;7.098;2022-12-13T10:29:10;40.45;;;21.00;;
50459;SDS011;36385;51.644;7.098;2022-12-13T10:31:54;40.28;;;20.25;;
50459;SDS011;36385;51.644;7.098;2022-12-13T10:34:27;43.83;;;21.80;;
50459;SDS011;36385;51.644;7.098;2022-12-13T10:37:04;40.58;;;20.35;;
50459;SDS011;36385;51.644;7.098;2022-12-13T10:39:50;40.03;;;20.58;;
50459;SDS011;36385;51.644;7.098;2022-12-13T10:42:17;39.25;;;20.60;;
50459;SDS011;36385;51.644;7.098;2022-12-13T10:44:45;43.58;;;22.38;;
50459;SDS011;36385;51.644;7.098;2022-12-13T10:47:15;37.13;;;21.08;;
50459;SDS011;36385;51.644;7.098;2022-12-13T10:49:46;40.85;;;21.60;;
50459;SDS011;36385;51.644;7.098;2022-12-13T10:52:25;35.38;;;20.08;;
50459;SDS011;36385;51.644;7.098;2022-12-13T10:54:51;37.88;;;19.88;;
50459;SDS011;36385;51.644;7.098;2022-12-13T10:57:18;36.05;;;20.60;;
50459;SDS011;36385;51.644;7.098;2022-12-13T10:59:47;38.13;;;21.80;;
50459;SDS011;36385;51.644;7.098;2022-12-13T11:04:55;38.55;;;21.02;;
50459;SDS011;36385;51.644;7.098;2022-12-13T11:07:31;37.80;;;20.50;;
50459;SDS011;36385;51.644;7.098;2022-12-13T11:09:58;36.85;;;20.38;;
50459;SDS011;36385;51.644;7.098;2022-12-13T11:12:46;39.15;;;20.92;;
50459;SDS011;36385;51.644;7.098;2022-12-13T11:15:18;38.95;;;21.58;;
50459;SDS011;36385;51.644;7.098;2022-12-13T11:17:57;35.33;;;21.17;;
50459;SDS011;36385;51.644;7.098;2022-12-13T11:20:37;40.80;;;22.15;;
50459;SDS011;36385;51.644;7.098;2022-12-13T11:23:27;40.45;;;22.73;;
50459;SDS011;36385;51.644;7.098;2022-12-13T11:26:16;40.53;;;21.90;;
50459;SDS011;36385;51.644;7.098;2022-12-13T11:28:54;40.33;;;21.20;;
50459;SDS011;36385;51.644;7.098;2022-12-13T11:37:09;39.58;;;21.50;;
50459;SDS011;36385;51.644;7.098;2022-12-13T11:39:47;39.13;;;22.20;;
50459;SDS011;36385;51.644;7.098;2022-12-13T11:47:34;41.40;;;22.92;;
50459;SDS011;36385;51.644;7.098;2022-12-13T11:50:12;43.00;;;22.02;;
50459;SDS011;36385;51.644;7.098;2022-12-13T11:52:51;38.80;;;21.98;;
50459;SDS011;36385;51.644;7.098;2022-12-13T11:55:23;42.15;;;22.70;;
50459;SDS011;36385;51.644;7.098;2022-12-13T11:58:13;40.97;;;22.42;;
50459;SDS011;36385;51.644;7.098;2022-12-13T12:01:08;40.30;;;22.75;;
50459;SDS011;36385;51.644;7.098;2022-12-13T12:04:02;37.35;;;21.42;;
50459;SDS011;36385;51.644;7.098;2022-12-13T12:06:39;41.10;;;21.10;;
50459;SDS011;36385;51.644;7.098;2022-12-13T12:09:13;41.08;;;21.95;;
50459;SDS011;36385;51.644;7.098;2022-12-13T12:11:49;39.88;;;21.70;;
50459;SDS011;36385;51.644;7.098;2022-12-13T12:14:23;38.45;;;21.80;;
50459;SDS011;36385;51.644;7.098;2022-12-13T12:17:00;38.97;;;22.15;;
50459;SDS011;36385;51.644;7.098;2022-12-13T12:19:29;41.50;;;22.50;;
50459;SDS011;36385;51.644;7.098;2022-12-13T12:30:54;42.25;;;22.58;;
50459;SDS011;36385;51.644;7.098;2022-12-13T12:33:33;38.08;;;21.13;;
50459;SDS011;36385;51.644;7.098;2022-12-13T12:41:24;40.60;;;21.20;;
50459;SDS011;36385;51.644;7.098;2022-12-13T12:47:09;40.33;;;22.45;;
50459;SDS011;36385;51.644;7.098;2022-12-13T12:58:39;38.30;;;21.10;;
50459;SDS011;36385;51.644;7.098;2022-12-13T13:04:37;36.83;;;19.70;;
50459;SDS011;36385;51.644;7.098;2022-12-13T13:07:12;35.67;;;18.90;;
50459;SDS011;36385;51.644;7.098;2022-12-13T13:09:44;32.17;;;18.50;;
50459;SDS011;36385;51.644;7.098;2022-12-13T13:12:11;34.83;;;18.55;;
50459;SDS011;36385;51.644;7.098;2022-12-13T13:14:38;36.35;;;19.38;;
50459;SDS011;36385;51.644;7.098;2022-12-13T13:32:31;39.75;;;21.42;;
50459;SDS011;36385;51.644;7.098;2022-12-13T13:37:56;41.13;;;20.53;;
50459;SDS011;36385;51.644;7.098;2022-12-13T13:40:36;36.75;;;20.48;;
50459;SDS011;36385;51.644;7.098;2022-12-13T13:53:50;38.08;;;20.88;;
50459;SDS011;36385;51.644;7.098;2022-12-13T13:59:27;36.38;;;20.67;;
50459;SDS011;36385;51.644;7.098;2022-12-13T14:02:23;38.72;;;21.08;;
50459;SDS011;36385;51.644;7.098;2022-12-13T14:16:55;42.75;;;22.67;;
50459;SDS011;36385;51.644;7.098;2022-12-13T14:19:53;40.67;;;23.42;;
50459;SDS011;36385;51.644;7.098;2022-12-13T14:22:45;41.40;;;24.20;;
50459;SDS011;36385;51.644;7.098;2022-12-13T14:28:08;41.05;;;23.95;;
50459;SDS011;36385;51.644;7.098;2022-12-13T14:30:40;44.10;;;24.25;;
50459;SDS011;36385;51.644;7.098;2022-12-13T14:33:13;41.33;;;23.40;;
50459;SDS011;36385;51.644;7.098;2022-12-13T14:35:49;42.42;;;23.80;;
50459;SDS011;36385;51.644;7.098;2022-12-13T14:38:35;41.45;;;22.75;;
50459;SDS011;36385;51.644;7.098;2022-12-13T14:41:01;42.43;;;23.60;;
50459;SDS011;36385;51.644;7.098;2022-12-13T14:43:31;44.80;;;23.60;;
50459;SDS011;36385;51.644;7.098;2022-12-13T14:46:00;41.42;;;23.60;;
50459;SDS011;36385;51.644;7.098;2022-12-13T14:48:34;46.53;;;24.75;;
50459;SDS011;36385;51.644;7.098;2022-12-13T14:51:17;40.08;;;22.10;;
50459;SDS011;36385;51.644;7.098;2022-12-13T14:54:07;42.00;;;23.80;;
50459;SDS011;36385;51.644;7.098;2022-12-13T14:56:58;40.53;;;21.75;;
50459;SDS011;36385;51.644;7.098;2022-12-13T14:59:25;41.08;;;22.60;;
50459;SDS011;36385;51.644;7.098;2022-12-13T15:01:56;40.30;;;22.67;;
50459;SDS011;36385;51.644;7.098;2022-12-13T15:04:25;44.67;;;23.55;;
50459;SDS011;36385;51.644;7.098;2022-12-13T15:07:00;42.75;;;23.30;;
50459;SDS011;36385;51.644;7.098;2022-12-13T15:09:27;42.33;;;22.60;;
50459;SDS011;36385;51.644;7.098;2022-12-13T15:11:54;39.53;;;21.88;;
50459;SDS011;36385;51.644;7.098;2022-12-13T15:14:22;37.45;;;21.92;;
50459;SDS011;36385;51.644;7.098;2022-12-13T15:16:49;39.75;;;21.52;;
50459;SDS011;36385;51.644;7.098;2022-12-13T15:19:17;42.90;;;24.38;;
50459;SDS011;36385;51.644;7.098;2022-12-13T15:21:59;38.47;;;22.98;;
50459;SDS011;36385;51.644;7.098;2022-12-13T15:24:30;43.50;;;24.70;;
50459;SDS011;36385;51.644;7.098;2022-12-13T15:26:58;45.63;;;24.38;;
50459;SDS011;36385;51.644;7.098;2022-12-13T15:29:27;47.33;;;24.92;;
50459;SDS011;36385;51.644;7.098;2022-12-13T15:31:54;47.95;;;24.95;;
50459;SDS011;36385;51.644;7.098;2022-12-13T15:36:52;44.20;;;24.20;;
50459;SDS011;36385;51.644;7.098;2022-12-13T15:39:19;45.38;;;25.52;;
50459;SDS011;36385;51.644;7.098;2022-12-13T15:41:46;45.17;;;24.98;;
50459;SDS011;36385;51.644;7.098;2022-12-13T15:44:16;47.88;;;25.90;;
50459;SDS011;36385;51.644;7.098;2022-12-13T15:46:43;45.88;;;24.55;;
50459;SDS011;36385;51.644;7.098;2022-12-13T15:49:20;44.55;;;25.23;;
50459;SDS011;36385;51.644;7.098;2022-12-13T15:54:56;46.38;;;25.10;;
50459;SDS011;36385;51.644;7.098;2022-12-13T15:57:27;46.40;;;27.00;;
50459;SDS011;36385;51.644;7.098;2022-12-13T16:00:05;50.50;;;27.50;;
50459;SDS011;36385;51.644;7.098;2022-12-13T16:02:50;49.80;;;27.90;;
50459;SDS011;36385;51.644;7.098;2022-12-13T16:05:39;47.70;;;25.40;;
50459;SDS011;36385;51.644;7.098;2022-12-13T16:08:31;48.95;;;26.00;;
50459;SDS011;36385;51.644;7.098;2022-12-13T16:10:59;45.38;;;26.10;;
50459;SDS011;36385;51.644;7.098;2022-12-13T16:13:30;45.00;;;26.23;;
50459;SDS011;36385;51.644;7.098;2022-12-13T16:16:00;51.53;;;27.48;;
50459;SDS011;36385;51.644;7.098;2022-12-13T16:18:51;51.00;;;27.08;;
50459;SDS011;36385;51.644;7.098;2022-12-13T16:21:19;50.35;;;27.42;;
50459;SDS011;36385;51.644;7.098;2022-12-13T16:23:45;48.47;;;27.00;;
50459;SDS011;36385;51.644;7.098;2022-12-13T16:26:11;44.47;;;25.60;;
50459;SDS011;36385;51.644;7.098;2022-12-13T16:28:37;46.40;;;25.55;;
50459;SDS011;36385;51.644;7.098;2022-12-13T16:31:16;45.20;;;24.33;;
50459;SDS011;36385;51.644;7.098;2022-12-13T16:33:45;45.00;;;25.20;;
50459;SDS011;36385;51.644;7.098;2022-12-13T16:36:11;48.47;;;24.85;;
50459;SDS011;36385;51.644;7.098;2022-12-13T16:38:36;44.65;;;24.80;;
50459;SDS011;36385;51.644;7.098;2022-12-13T16:41:02;43.00;;;23.98;;
50459;SDS011;36385;51.644;7.098;2022-12-13T16:43:28;47.03;;;26.02;;
50459;SDS011;36385;51.644;7.098;2022-12-13T16:45:57;48.42;;;25.85;;
50459;SDS011;36385;51.644;7.098;2022-12-13T16:48:23;44.67;;;24.50;;